sensor_id;sensor_type;location;lat;lon;timestamp;P1;durP1;ratioP1;P2;durP2;ratioP2
78877;SDS011;68257;43.514;1.498;2023-06-24T00:01:20;6.73;;;3.50;;
78877;SDS011;68257;43.514;1.498;2023-06-24T00:03:47;6.03;;;3.40;;
78877;SDS011;68257;43.514;1.498;2023-06-24T00:06:13;5.70;;;3.17;;
78877;SDS011;68257;43.514;1.498;2023-06-24T00:08:46;5.57;;;3.33;;
78877;SDS011;68257;43.514;1.498;2023-06-24T00:11:12;6.22;;;3.10;;
78877;SDS011;68257;43.514;1.498;2023-06-24T00:13:38;6.05;;;3.47;;
78877;SDS011;68257;43.514;1.498;2023-06-24T00:16:04;8.48;;;3.92;;
78877;SDS011;68257;43.514;1.498;2023-06-24T00:18:31;5.95;;;3.35;;
78877;SDS011;68257;43.514;1.498;2023-06-24T00:20:56;8.17;;;3.27;;
78877;SDS011;68257;43.514;1.498;2023-06-24T00:23:22;7.37;;;3.40;;
78877;SDS011;68257;43.514;1.498;2023-06-24T00:25:54;6.03;;;3.10;;
78877;SDS011;68257;43.514;1.498;2023-06-24T00:28:20;6.32;;;3.30;;
78877;SDS011;68257;43.514;1.498;2023-06-24T00:30:47;5.83;;;3.30;;
78877;SDS011;68257;43.514;1.498;2023-06-24T00:33:12;6.45;;;3.47;;
78877;SDS011;68257;43.514;1.498;2023-06-24T00:35:39;6.20;;;3.45;;
78877;SDS011;68257;43.514;1.498;2023-06-24T00:38:04;7.38;;;3.35;;
78877;SDS011;68257;43.514;1.498;2023-06-24T00:40:30;7.70;;;3.63;;
78877;SDS011;68257;43.514;1.498;2023-06-24T00:42:56;6.10;;;3.35;;
78877;SDS011;68257;43.514;1.498;2023-06-24T00:45:22;6.47;;;3.13;;
78877;SDS011;68257;43.514;1.498;2023-06-24T00:47:47;5.30;;;3.38;;
78877;SDS011;68257;43.514;1.498;2023-06-24T00:50:14;6.53;;;3.80;;
78877;SDS011;68257;43.514;1.498;2023-06-24T00:52:40;5.88;;;3.50;;
78877;SDS011;68257;43.514;1.498;2023-06-24T00:55:08;6.70;;;3.25;;
78877;SDS011;68257;43.514;1.498;2023-06-24T00:57:45;6.85;;;3.55;;
78877;SDS011;68257;43.514;1.498;2023-06-24T01:00:15;5.90;;;3.20;;
78877;SDS011;68257;43.514;1.498;2023-06-24T01:02:43;7.97;;;3.70;;
78877;SDS011;68257;43.514;1.498;2023-06-24T01:05:09;5.80;;;3.72;;
78877;SDS011;68257;43.514;1.498;2023-06-24T01:07:36;6.45;;;3.40;;
78877;SDS011;68257;43.514;1.498;2023-06-24T01:10:03;5.10;;;3.30;;
78877;SDS011;68257;43.514;1.498;2023-06-24T01:12:36;6.65;;;3.63;;
78877;SDS011;68257;43.514;1.498;2023-06-24T01:15:09;7.75;;;3.50;;
78877;SDS011;68257;43.514;1.498;2023-06-24T01:17:43;6.05;;;3.63;;
78877;SDS011;68257;43.514;1.498;2023-06-24T01:25:58;9.18;;;3.40;;
78877;SDS011;68257;43.514;1.498;2023-06-24T01:35:18;5.72;;;3.42;;
78877;SDS011;68257;43.514;1.498;2023-06-24T01:37:24;6.90;;;3.50;;
78877;SDS011;68257;43.514;1.498;2023-06-24T01:40:02;6.13;;;3.30;;
78877;SDS011;68257;43.514;1.498;2023-06-24T01:42:35;6.72;;;3.22;;
78877;SDS011;68257;43.514;1.498;2023-06-24T01:45:03;7.32;;;3.78;;
78877;SDS011;68257;43.514;1.498;2023-06-24T01:47:31;8.07;;;3.65;;
78877;SDS011;68257;43.514;1.498;2023-06-24T01:49:57;6.57;;;3.42;;
78877;SDS011;68257;43.514;1.498;2023-06-24T01:52:24;8.60;;;3.40;;
78877;SDS011;68257;43.514;1.498;2023-06-24T01:54:51;5.73;;;3.60;;
78877;SDS011;68257;43.514;1.498;2023-06-24T01:57:17;6.75;;;3.72;;
78877;SDS011;68257;43.514;1.498;2023-06-24T01:59:43;7.03;;;4.00;;
78877;SDS011;68257;43.514;1.498;2023-06-24T02:02:11;10.38;;;4.10;;
78877;SDS011;68257;43.514;1.498;2023-06-24T02:04:37;6.32;;;3.50;;
78877;SDS011;68257;43.514;1.498;2023-06-24T02:07:03;7.22;;;3.78;;
78877;SDS011;68257;43.514;1.498;2023-06-24T02:09:29;8.10;;;3.47;;
78877;SDS011;68257;43.514;1.498;2023-06-24T02:11:57;6.93;;;3.53;;
78877;SDS011;68257;43.514;1.498;2023-06-24T02:14:23;6.32;;;3.55;;
78877;SDS011;68257;43.514;1.498;2023-06-24T02:16:50;5.97;;;3.22;;
78877;SDS011;68257;43.514;1.498;2023-06-24T02:19:21;7.90;;;3.40;;
78877;SDS011;68257;43.514;1.498;2023-06-24T02:21:47;6.53;;;3.25;;
78877;SDS011;68257;43.514;1.498;2023-06-24T02:24:13;6.37;;;3.27;;
78877;SDS011;68257;43.514;1.498;2023-06-24T02:26:39;6.63;;;3.15;;
78877;SDS011;68257;43.514;1.498;2023-06-24T02:29:06;5.50;;;3.30;;
78877;SDS011;68257;43.514;1.498;2023-06-24T02:31:34;5.93;;;3.28;;
78877;SDS011;68257;43.514;1.498;2023-06-24T02:33:59;6.93;;;3.50;;
78877;SDS011;68257;43.514;1.498;2023-06-24T02:36:25;6.23;;;3.63;;
78877;SDS011;68257;43.514;1.498;2023-06-24T02:38:50;6.00;;;3.40;;
78877;SDS011;68257;43.514;1.498;2023-06-24T02:41:15;8.33;;;4.00;;
78877;SDS011;68257;43.514;1.498;2023-06-24T02:43:41;6.63;;;3.75;;
78877;SDS011;68257;43.514;1.498;2023-06-24T02:46:06;7.30;;;3.80;;
78877;SDS011;68257;43.514;1.498;2023-06-24T02:48:33;6.88;;;3.60;;
78877;SDS011;68257;43.514;1.498;2023-06-24T02:50:59;9.50;;;3.70;;
78877;SDS011;68257;43.514;1.498;2023-06-24T02:53:26;7.75;;;3.50;;
78877;SDS011;68257;43.514;1.498;2023-06-24T02:55:52;6.10;;;3.78;;
78877;SDS011;68257;43.514;1.498;2023-06-24T02:58:20;7.38;;;3.60;;
78877;SDS011;68257;43.514;1.498;2023-06-24T03:00:46;5.90;;;3.53;;
78877;SDS011;68257;43.514;1.498;2023-06-24T03:03:13;6.20;;;3.35;;
78877;SDS011;68257;43.514;1.498;2023-06-24T03:05:39;7.60;;;3.90;;
78877;SDS011;68257;43.514;1.498;2023-06-24T03:08:04;5.80;;;3.40;;
78877;SDS011;68257;43.514;1.498;2023-06-24T03:10:30;8.65;;;4.13;;
78877;SDS011;68257;43.514;1.498;2023-06-24T03:12:55;7.00;;;3.60;;
78877;SDS011;68257;43.514;1.498;2023-06-24T03:15:20;9.13;;;3.60;;
78877;SDS011;68257;43.514;1.498;2023-06-24T03:17:46;7.67;;;3.90;;
78877;SDS011;68257;43.514;1.498;2023-06-24T03:20:12;7.63;;;3.65;;
78877;SDS011;68257;43.514;1.498;2023-06-24T03:22:37;8.37;;;4.03;;
78877;SDS011;68257;43.514;1.498;2023-06-24T03:25:03;7.10;;;3.40;;
78877;SDS011;68257;43.514;1.498;2023-06-24T03:27:28;10.20;;;3.83;;
78877;SDS011;68257;43.514;1.498;2023-06-24T03:29:56;7.68;;;3.50;;
78877;SDS011;68257;43.514;1.498;2023-06-24T03:32:21;7.37;;;3.83;;
78877;SDS011;68257;43.514;1.498;2023-06-24T03:34:47;6.50;;;3.50;;
78877;SDS011;68257;43.514;1.498;2023-06-24T03:37:12;7.40;;;3.60;;
78877;SDS011;68257;43.514;1.498;2023-06-24T03:39:37;6.83;;;3.70;;
78877;SDS011;68257;43.514;1.498;2023-06-24T03:42:03;8.70;;;4.32;;
78877;SDS011;68257;43.514;1.498;2023-06-24T03:44:28;6.53;;;3.50;;
78877;SDS011;68257;43.514;1.498;2023-06-24T03:46:54;6.37;;;3.67;;
78877;SDS011;68257;43.514;1.498;2023-06-24T03:49:19;6.77;;;3.70;;
78877;SDS011;68257;43.514;1.498;2023-06-24T03:51:45;7.65;;;4.03;;
78877;SDS011;68257;43.514;1.498;2023-06-24T03:54:10;7.53;;;4.00;;
78877;SDS011;68257;43.514;1.498;2023-06-24T03:56:35;6.70;;;3.80;;
78877;SDS011;68257;43.514;1.498;2023-06-24T03:59:01;7.93;;;4.10;;
78877;SDS011;68257;43.514;1.498;2023-06-24T04:01:26;6.20;;;3.73;;
78877;SDS011;68257;43.514;1.498;2023-06-24T04:03:52;7.25;;;4.20;;
78877;SDS011;68257;43.514;1.498;2023-06-24T04:06:17;6.77;;;4.13;;
78877;SDS011;68257;43.514;1.498;2023-06-24T04:08:43;7.73;;;3.67;;
78877;SDS011;68257;43.514;1.498;2023-06-24T04:11:08;7.70;;;4.10;;
78877;SDS011;68257;43.514;1.498;2023-06-24T04:13:34;5.90;;;3.67;;
78877;SDS011;68257;43.514;1.498;2023-06-24T04:16:00;8.52;;;3.97;;
78877;SDS011;68257;43.514;1.498;2023-06-24T04:18:25;7.53;;;3.80;;
78877;SDS011;68257;43.514;1.498;2023-06-24T04:20:51;6.50;;;3.70;;
78877;SDS011;68257;43.514;1.498;2023-06-24T04:23:16;9.88;;;4.00;;
78877;SDS011;68257;43.514;1.498;2023-06-24T04:25:42;6.57;;;3.73;;
78877;SDS011;68257;43.514;1.498;2023-06-24T04:28:08;9.20;;;4.30;;
78877;SDS011;68257;43.514;1.498;2023-06-24T04:30:33;6.43;;;4.05;;
78877;SDS011;68257;43.514;1.498;2023-06-24T04:33:03;9.05;;;4.50;;
78877;SDS011;68257;43.514;1.498;2023-06-24T04:35:29;9.80;;;3.40;;
78877;SDS011;68257;43.514;1.498;2023-06-24T04:37:55;10.18;;;3.70;;
78877;SDS011;68257;43.514;1.498;2023-06-24T04:40:20;8.27;;;4.00;;
78877;SDS011;68257;43.514;1.498;2023-06-24T04:42:46;9.30;;;4.30;;
78877;SDS011;68257;43.514;1.498;2023-06-24T04:45:11;7.28;;;3.85;;
78877;SDS011;68257;43.514;1.498;2023-06-24T04:47:37;7.20;;;3.70;;
78877;SDS011;68257;43.514;1.498;2023-06-24T04:50:03;8.20;;;4.30;;
78877;SDS011;68257;43.514;1.498;2023-06-24T04:52:28;8.80;;;4.35;;
78877;SDS011;68257;43.514;1.498;2023-06-24T04:54:54;7.77;;;4.20;;
78877;SDS011;68257;43.514;1.498;2023-06-24T04:57:24;8.63;;;4.60;;
78877;SDS011;68257;43.514;1.498;2023-06-24T04:59:53;7.80;;;4.15;;
78877;SDS011;68257;43.514;1.498;2023-06-24T05:02:18;6.97;;;3.73;;
78877;SDS011;68257;43.514;1.498;2023-06-24T05:04:44;8.40;;;4.00;;
78877;SDS011;68257;43.514;1.498;2023-06-24T05:07:09;6.70;;;3.97;;
78877;SDS011;68257;43.514;1.498;2023-06-24T05:09:34;7.30;;;3.95;;
78877;SDS011;68257;43.514;1.498;2023-06-24T05:12:03;6.43;;;3.63;;
78877;SDS011;68257;43.514;1.498;2023-06-24T05:14:29;9.68;;;4.18;;
78877;SDS011;68257;43.514;1.498;2023-06-24T05:16:54;6.50;;;3.70;;
78877;SDS011;68257;43.514;1.498;2023-06-24T05:19:20;10.77;;;4.25;;
78877;SDS011;68257;43.514;1.498;2023-06-24T05:21:45;5.85;;;3.88;;
78877;SDS011;68257;43.514;1.498;2023-06-24T05:24:10;6.63;;;3.77;;
78877;SDS011;68257;43.514;1.498;2023-06-24T05:26:36;8.00;;;4.00;;
78877;SDS011;68257;43.514;1.498;2023-06-24T05:29:01;5.83;;;3.60;;
78877;SDS011;68257;43.514;1.498;2023-06-24T05:31:27;7.50;;;3.70;;
78877;SDS011;68257;43.514;1.498;2023-06-24T05:33:52;6.90;;;3.80;;
78877;SDS011;68257;43.514;1.498;2023-06-24T05:36:17;5.70;;;3.38;;
78877;SDS011;68257;43.514;1.498;2023-06-24T05:38:43;7.63;;;3.80;;
78877;SDS011;68257;43.514;1.498;2023-06-24T05:41:08;5.47;;;3.53;;
78877;SDS011;68257;43.514;1.498;2023-06-24T05:43:33;9.33;;;3.70;;
78877;SDS011;68257;43.514;1.498;2023-06-24T05:45:59;6.90;;;3.60;;
78877;SDS011;68257;43.514;1.498;2023-06-24T05:48:25;6.95;;;3.53;;
78877;SDS011;68257;43.514;1.498;2023-06-24T05:50:50;8.13;;;3.60;;
78877;SDS011;68257;43.514;1.498;2023-06-24T05:53:16;7.50;;;3.83;;
78877;SDS011;68257;43.514;1.498;2023-06-24T05:55:41;6.90;;;3.60;;
78877;SDS011;68257;43.514;1.498;2023-06-24T05:58:06;6.28;;;3.25;;
78877;SDS011;68257;43.514;1.498;2023-06-24T06:00:32;6.53;;;3.60;;
78877;SDS011;68257;43.514;1.498;2023-06-24T06:02:57;6.47;;;3.70;;
78877;SDS011;68257;43.514;1.498;2023-06-24T06:05:23;6.63;;;3.57;;
78877;SDS011;68257;43.514;1.498;2023-06-24T06:07:48;6.27;;;3.50;;
78877;SDS011;68257;43.514;1.498;2023-06-24T06:10:13;6.47;;;3.60;;
78877;SDS011;68257;43.514;1.498;2023-06-24T06:12:42;5.85;;;3.53;;
78877;SDS011;68257;43.514;1.498;2023-06-24T06:15:08;6.03;;;3.70;;
78877;SDS011;68257;43.514;1.498;2023-06-24T06:17:34;8.55;;;3.60;;
78877;SDS011;68257;43.514;1.498;2023-06-24T06:19:59;5.85;;;3.60;;
78877;SDS011;68257;43.514;1.498;2023-06-24T06:22:24;6.60;;;3.80;;
78877;SDS011;68257;43.514;1.498;2023-06-24T06:24:50;7.50;;;4.00;;
78877;SDS011;68257;43.514;1.498;2023-06-24T06:27:15;7.60;;;3.90;;
78877;SDS011;68257;43.514;1.498;2023-06-24T06:29:41;6.80;;;3.60;;
78877;SDS011;68257;43.514;1.498;2023-06-24T06:32:06;7.53;;;3.30;;
78877;SDS011;68257;43.514;1.498;2023-06-24T06:34:32;6.53;;;3.60;;
78877;SDS011;68257;43.514;1.498;2023-06-24T06:36:57;6.50;;;3.40;;
78877;SDS011;68257;43.514;1.498;2023-06-24T06:39:23;5.57;;;3.65;;
78877;SDS011;68257;43.514;1.498;2023-06-24T06:41:48;8.37;;;3.53;;
78877;SDS011;68257;43.514;1.498;2023-06-24T06:44:13;5.93;;;3.37;;
78877;SDS011;68257;43.514;1.498;2023-06-24T06:46:39;6.20;;;3.50;;
78877;SDS011;68257;43.514;1.498;2023-06-24T06:49:04;6.90;;;3.27;;
78877;SDS011;68257;43.514;1.498;2023-06-24T06:51:29;5.85;;;3.22;;
78877;SDS011;68257;43.514;1.498;2023-06-24T06:53:55;6.63;;;3.17;;
78877;SDS011;68257;43.514;1.498;2023-06-24T06:56:23;7.97;;;3.40;;
78877;SDS011;68257;43.514;1.498;2023-06-24T06:58:50;5.90;;;3.20;;
78877;SDS011;68257;43.514;1.498;2023-06-24T07:01:17;7.87;;;3.67;;
78877;SDS011;68257;43.514;1.498;2023-06-24T07:03:42;5.93;;;3.17;;
78877;SDS011;68257;43.514;1.498;2023-06-24T07:06:08;5.70;;;3.27;;
78877;SDS011;68257;43.514;1.498;2023-06-24T07:08:33;7.20;;;3.70;;
78877;SDS011;68257;43.514;1.498;2023-06-24T07:10:59;6.55;;;3.30;;
78877;SDS011;68257;43.514;1.498;2023-06-24T07:13:24;5.70;;;3.47;;
78877;SDS011;68257;43.514;1.498;2023-06-24T07:15:49;6.63;;;3.67;;
78877;SDS011;68257;43.514;1.498;2023-06-24T07:18:15;7.38;;;3.75;;
78877;SDS011;68257;43.514;1.498;2023-06-24T07:20:40;7.35;;;3.78;;
78877;SDS011;68257;43.514;1.498;2023-06-24T07:23:06;7.13;;;3.53;;
78877;SDS011;68257;43.514;1.498;2023-06-24T07:25:31;7.07;;;3.73;;
78877;SDS011;68257;43.514;1.498;2023-06-24T07:27:57;7.40;;;3.58;;
78877;SDS011;68257;43.514;1.498;2023-06-24T07:30:22;7.17;;;3.50;;
78877;SDS011;68257;43.514;1.498;2023-06-24T07:32:47;6.43;;;3.73;;
78877;SDS011;68257;43.514;1.498;2023-06-24T07:35:13;6.97;;;3.53;;
78877;SDS011;68257;43.514;1.498;2023-06-24T07:37:40;6.47;;;3.50;;
78877;SDS011;68257;43.514;1.498;2023-06-24T07:40:06;7.00;;;3.60;;
78877;SDS011;68257;43.514;1.498;2023-06-24T07:58:31;6.13;;;3.00;;
78877;SDS011;68257;43.514;1.498;2023-06-24T08:00:56;6.25;;;3.42;;
78877;SDS011;68257;43.514;1.498;2023-06-24T08:03:22;5.85;;;3.10;;
78877;SDS011;68257;43.514;1.498;2023-06-24T08:05:47;5.70;;;3.33;;
78877;SDS011;68257;43.514;1.498;2023-06-24T08:08:14;5.43;;;3.40;;
78877;SDS011;68257;43.514;1.498;2023-06-24T08:10:40;4.87;;;3.30;;
78877;SDS011;68257;43.514;1.498;2023-06-24T08:13:05;4.63;;;3.20;;
78877;SDS011;68257;43.514;1.498;2023-06-24T08:15:31;5.60;;;3.30;;
78877;SDS011;68257;43.514;1.498;2023-06-24T08:17:56;5.93;;;3.30;;
78877;SDS011;68257;43.514;1.498;2023-06-24T08:20:22;5.40;;;2.97;;
78877;SDS011;68257;43.514;1.498;2023-06-24T08:22:47;5.20;;;2.80;;
78877;SDS011;68257;43.514;1.498;2023-06-24T08:25:13;4.93;;;3.20;;
78877;SDS011;68257;43.514;1.498;2023-06-24T08:27:38;5.40;;;2.90;;
78877;SDS011;68257;43.514;1.498;2023-06-24T08:30:04;4.47;;;2.42;;
78877;SDS011;68257;43.514;1.498;2023-06-24T08:32:30;4.87;;;2.90;;
78877;SDS011;68257;43.514;1.498;2023-06-24T08:34:56;4.63;;;2.63;;
78877;SDS011;68257;43.514;1.498;2023-06-24T08:37:21;5.73;;;2.83;;
78877;SDS011;68257;43.514;1.498;2023-06-24T08:39:47;5.57;;;3.20;;
78877;SDS011;68257;43.514;1.498;2023-06-24T08:42:12;6.30;;;2.40;;
78877;SDS011;68257;43.514;1.498;2023-06-24T08:44:37;6.13;;;3.43;;
78877;SDS011;68257;43.514;1.498;2023-06-24T08:47:03;4.65;;;3.22;;
78877;SDS011;68257;43.514;1.498;2023-06-24T08:49:29;5.47;;;3.00;;
78877;SDS011;68257;43.514;1.498;2023-06-24T08:54:40;5.60;;;3.20;;
78877;SDS011;68257;43.514;1.498;2023-06-24T08:57:06;5.90;;;2.83;;
78877;SDS011;68257;43.514;1.498;2023-06-24T08:59:33;5.03;;;2.93;;
78877;SDS011;68257;43.514;1.498;2023-06-24T09:02:00;5.85;;;3.20;;
78877;SDS011;68257;43.514;1.498;2023-06-24T09:04:25;5.53;;;2.85;;
78877;SDS011;68257;43.514;1.498;2023-06-24T09:06:50;6.20;;;4.17;;
78877;SDS011;68257;43.514;1.498;2023-06-24T09:09:19;5.03;;;3.30;;
78877;SDS011;68257;43.514;1.498;2023-06-24T09:11:52;6.85;;;3.35;;
78877;SDS011;68257;43.514;1.498;2023-06-24T09:14:18;5.23;;;3.10;;
78877;SDS011;68257;43.514;1.498;2023-06-24T09:16:51;6.05;;;3.05;;
78877;SDS011;68257;43.514;1.498;2023-06-24T09:19:21;7.32;;;3.70;;
78877;SDS011;68257;43.514;1.498;2023-06-24T09:21:54;7.00;;;3.37;;
78877;SDS011;68257;43.514;1.498;2023-06-24T09:24:20;7.03;;;3.33;;
78877;SDS011;68257;43.514;1.498;2023-06-24T09:26:45;5.43;;;3.40;;
78877;SDS011;68257;43.514;1.498;2023-06-24T09:29:11;5.90;;;3.55;;
78877;SDS011;68257;43.514;1.498;2023-06-24T09:31:49;5.97;;;3.40;;
78877;SDS011;68257;43.514;1.498;2023-06-24T09:34:15;6.15;;;3.17;;
78877;SDS011;68257;43.514;1.498;2023-06-24T09:36:42;5.60;;;3.35;;
78877;SDS011;68257;43.514;1.498;2023-06-24T09:39:10;5.85;;;3.10;;
78877;SDS011;68257;43.514;1.498;2023-06-24T09:41:39;5.60;;;3.25;;
78877;SDS011;68257;43.514;1.498;2023-06-24T09:44:07;5.80;;;3.00;;
78877;SDS011;68257;43.514;1.498;2023-06-24T09:46:34;4.90;;;3.30;;
78877;SDS011;68257;43.514;1.498;2023-06-24T09:49:01;5.53;;;3.40;;
78877;SDS011;68257;43.514;1.498;2023-06-24T09:51:26;7.23;;;3.37;;
78877;SDS011;68257;43.514;1.498;2023-06-24T09:53:52;5.50;;;3.63;;
78877;SDS011;68257;43.514;1.498;2023-06-24T09:56:19;4.75;;;2.75;;
78877;SDS011;68257;43.514;1.498;2023-06-24T09:58:45;5.35;;;2.80;;
78877;SDS011;68257;43.514;1.498;2023-06-24T10:01:11;7.43;;;3.33;;
78877;SDS011;68257;43.514;1.498;2023-06-24T10:03:37;5.15;;;3.10;;
78877;SDS011;68257;43.514;1.498;2023-06-24T10:06:04;4.28;;;2.80;;
78877;SDS011;68257;43.514;1.498;2023-06-24T10:08:30;6.38;;;3.10;;
78877;SDS011;68257;43.514;1.498;2023-06-24T10:10:56;5.70;;;3.13;;
78877;SDS011;68257;43.514;1.498;2023-06-24T10:13:21;5.33;;;2.80;;
78877;SDS011;68257;43.514;1.498;2023-06-24T10:15:48;7.37;;;3.27;;
78877;SDS011;68257;43.514;1.498;2023-06-24T10:18:33;5.33;;;3.00;;
78877;SDS011;68257;43.514;1.498;2023-06-24T10:21:03;5.25;;;3.00;;
78877;SDS011;68257;43.514;1.498;2023-06-24T10:24:14;4.35;;;3.10;;
78877;SDS011;68257;43.514;1.498;2023-06-24T10:26:48;5.97;;;3.33;;
78877;SDS011;68257;43.514;1.498;2023-06-24T10:39:42;5.20;;;3.05;;
78877;SDS011;68257;43.514;1.498;2023-06-24T10:47:56;7.47;;;4.20;;
78877;SDS011;68257;43.514;1.498;2023-06-24T10:50:25;5.40;;;4.10;;
78877;SDS011;68257;43.514;1.498;2023-06-24T10:52:51;6.10;;;5.00;;
78877;SDS011;68257;43.514;1.498;2023-06-24T10:55:21;7.10;;;5.60;;
78877;SDS011;68257;43.514;1.498;2023-06-24T10:57:47;5.50;;;4.82;;
78877;SDS011;68257;43.514;1.498;2023-06-24T11:00:13;7.50;;;5.20;;
78877;SDS011;68257;43.514;1.498;2023-06-24T11:02:39;5.82;;;5.20;;
78877;SDS011;68257;43.514;1.498;2023-06-24T11:05:05;5.80;;;5.20;;
78877;SDS011;68257;43.514;1.498;2023-06-24T11:07:31;5.87;;;4.87;;
78877;SDS011;68257;43.514;1.498;2023-06-24T11:10:01;6.25;;;4.63;;
78877;SDS011;68257;43.514;1.498;2023-06-24T11:14:59;5.28;;;4.38;;
78877;SDS011;68257;43.514;1.498;2023-06-24T11:17:27;5.00;;;4.47;;
78877;SDS011;68257;43.514;1.498;2023-06-24T11:19:53;5.10;;;4.40;;
78877;SDS011;68257;43.514;1.498;2023-06-24T11:22:19;8.20;;;6.10;;
78877;SDS011;68257;43.514;1.498;2023-06-24T11:24:44;5.50;;;5.00;;
78877;SDS011;68257;43.514;1.498;2023-06-24T11:27:10;6.13;;;4.80;;
78877;SDS011;68257;43.514;1.498;2023-06-24T11:29:35;5.57;;;5.00;;
78877;SDS011;68257;43.514;1.498;2023-06-24T11:32:01;6.10;;;4.70;;
78877;SDS011;68257;43.514;1.498;2023-06-24T11:34:28;5.97;;;5.27;;
78877;SDS011;68257;43.514;1.498;2023-06-24T11:36:54;6.22;;;5.10;;
78877;SDS011;68257;43.514;1.498;2023-06-24T11:39:27;5.20;;;4.70;;
78877;SDS011;68257;43.514;1.498;2023-06-24T11:41:53;6.07;;;5.47;;
78877;SDS011;68257;43.514;1.498;2023-06-24T11:44:19;5.32;;;4.82;;
78877;SDS011;68257;43.514;1.498;2023-06-24T11:46:45;5.53;;;4.90;;
78877;SDS011;68257;43.514;1.498;2023-06-24T11:49:11;6.77;;;5.43;;
78877;SDS011;68257;43.514;1.498;2023-06-24T11:51:37;6.25;;;5.70;;
78877;SDS011;68257;43.514;1.498;2023-06-24T11:54:14;6.13;;;5.53;;
78877;SDS011;68257;43.514;1.498;2023-06-24T11:56:43;6.70;;;5.70;;
78877;SDS011;68257;43.514;1.498;2023-06-24T11:59:30;6.30;;;5.63;;
78877;SDS011;68257;43.514;1.498;2023-06-24T12:01:58;6.20;;;5.60;;
78877;SDS011;68257;43.514;1.498;2023-06-24T12:04:28;6.47;;;5.20;;
78877;SDS011;68257;43.514;1.498;2023-06-24T12:06:57;6.47;;;5.88;;
78877;SDS011;68257;43.514;1.498;2023-06-24T12:09:22;6.13;;;5.53;;
78877;SDS011;68257;43.514;1.498;2023-06-24T12:11:48;5.97;;;5.47;;
78877;SDS011;68257;43.514;1.498;2023-06-24T12:14:14;6.67;;;6.07;;
78877;SDS011;68257;43.514;1.498;2023-06-24T12:16:39;6.60;;;5.97;;
78877;SDS011;68257;43.514;1.498;2023-06-24T12:19:08;6.20;;;5.60;;
78877;SDS011;68257;43.514;1.498;2023-06-24T12:21:34;6.32;;;5.72;;
78877;SDS011;68257;43.514;1.498;2023-06-24T12:24:00;6.78;;;6.18;;
78877;SDS011;68257;43.514;1.498;2023-06-24T12:26:26;6.75;;;6.05;;
78877;SDS011;68257;43.514;1.498;2023-06-24T12:28:54;6.40;;;5.80;;
78877;SDS011;68257;43.514;1.498;2023-06-24T12:31:23;7.28;;;6.60;;
78877;SDS011;68257;43.514;1.498;2023-06-24T12:33:50;6.82;;;6.22;;
78877;SDS011;68257;43.514;1.498;2023-06-24T12:36:16;7.23;;;6.73;;
78877;SDS011;68257;43.514;1.498;2023-06-24T12:38:41;7.20;;;6.60;;
78877;SDS011;68257;43.514;1.498;2023-06-24T12:41:06;6.17;;;5.57;;
78877;SDS011;68257;43.514;1.498;2023-06-24T12:43:32;6.87;;;6.33;;
78877;SDS011;68257;43.514;1.498;2023-06-24T12:45:58;7.43;;;6.83;;
78877;SDS011;68257;43.514;1.498;2023-06-24T12:48:23;7.80;;;7.10;;
78877;SDS011;68257;43.514;1.498;2023-06-24T12:50:48;7.50;;;6.80;;
78877;SDS011;68257;43.514;1.498;2023-06-24T12:53:17;7.35;;;6.70;;
78877;SDS011;68257;43.514;1.498;2023-06-24T12:55:43;7.37;;;6.77;;
78877;SDS011;68257;43.514;1.498;2023-06-24T12:58:08;7.77;;;7.17;;
78877;SDS011;68257;43.514;1.498;2023-06-24T13:00:33;7.70;;;7.10;;
78877;SDS011;68257;43.514;1.498;2023-06-24T13:02:59;8.50;;;7.70;;
78877;SDS011;68257;43.514;1.498;2023-06-24T13:05:24;7.90;;;7.20;;
78877;SDS011;68257;43.514;1.498;2023-06-24T13:07:50;8.13;;;7.43;;
78877;SDS011;68257;43.514;1.498;2023-06-24T13:10:15;8.20;;;7.60;;
78877;SDS011;68257;43.514;1.498;2023-06-24T13:12:41;7.72;;;7.18;;
78877;SDS011;68257;43.514;1.498;2023-06-24T13:15:06;7.13;;;6.63;;
78877;SDS011;68257;43.514;1.498;2023-06-24T13:17:34;8.65;;;8.05;;
78877;SDS011;68257;43.514;1.498;2023-06-24T13:20:00;8.33;;;7.63;;
78877;SDS011;68257;43.514;1.498;2023-06-24T13:22:26;8.43;;;7.70;;
78877;SDS011;68257;43.514;1.498;2023-06-24T13:24:52;8.70;;;8.10;;
78877;SDS011;68257;43.514;1.498;2023-06-24T13:27:17;8.00;;;7.40;;
78877;SDS011;68257;43.514;1.498;2023-06-24T13:29:42;9.02;;;8.25;;
78877;SDS011;68257;43.514;1.498;2023-06-24T13:32:08;8.47;;;7.87;;
78877;SDS011;68257;43.514;1.498;2023-06-24T13:34:33;8.40;;;7.80;;
78877;SDS011;68257;43.514;1.498;2023-06-24T13:36:59;8.68;;;7.97;;
78877;SDS011;68257;43.514;1.498;2023-06-24T13:39:24;8.60;;;7.90;;
78877;SDS011;68257;43.514;1.498;2023-06-24T13:41:50;8.93;;;7.80;;
78877;SDS011;68257;43.514;1.498;2023-06-24T13:44:17;8.20;;;7.57;;
78877;SDS011;68257;43.514;1.498;2023-06-24T13:46:43;7.80;;;7.20;;
78877;SDS011;68257;43.514;1.498;2023-06-24T13:49:08;8.60;;;7.95;;
78877;SDS011;68257;43.514;1.498;2023-06-24T13:51:34;8.63;;;7.80;;
78877;SDS011;68257;43.514;1.498;2023-06-24T13:53:59;9.27;;;8.57;;
78877;SDS011;68257;43.514;1.498;2023-06-24T13:56:25;7.97;;;7.37;;
78877;SDS011;68257;43.514;1.498;2023-06-24T13:58:51;8.77;;;8.18;;
78877;SDS011;68257;43.514;1.498;2023-06-24T14:01:17;8.35;;;7.65;;
78877;SDS011;68257;43.514;1.498;2023-06-24T14:03:43;8.53;;;7.83;;
78877;SDS011;68257;43.514;1.498;2023-06-24T14:06:09;8.00;;;7.40;;
78877;SDS011;68257;43.514;1.498;2023-06-24T14:08:34;9.00;;;8.40;;
78877;SDS011;68257;43.514;1.498;2023-06-24T14:11:00;8.23;;;7.63;;
78877;SDS011;68257;43.514;1.498;2023-06-24T14:13:26;8.00;;;7.35;;
78877;SDS011;68257;43.514;1.498;2023-06-24T14:15:53;8.20;;;7.50;;
78877;SDS011;68257;43.514;1.498;2023-06-24T14:18:18;7.50;;;6.80;;
78877;SDS011;68257;43.514;1.498;2023-06-24T14:20:44;7.20;;;6.70;;
78877;SDS011;68257;43.514;1.498;2023-06-24T14:23:10;7.63;;;6.93;;
78877;SDS011;68257;43.514;1.498;2023-06-24T14:25:35;7.30;;;6.70;;
78877;SDS011;68257;43.514;1.498;2023-06-24T14:28:02;7.22;;;6.15;;
78877;SDS011;68257;43.514;1.498;2023-06-24T14:30:28;7.50;;;6.90;;
78877;SDS011;68257;43.514;1.498;2023-06-24T14:32:54;7.13;;;6.50;;
78877;SDS011;68257;43.514;1.498;2023-06-24T14:35:19;6.50;;;6.00;;
78877;SDS011;68257;43.514;1.498;2023-06-24T14:37:45;7.03;;;6.37;;
78877;SDS011;68257;43.514;1.498;2023-06-24T14:40:10;6.57;;;5.90;;
78877;SDS011;68257;43.514;1.498;2023-06-24T14:42:36;6.80;;;5.80;;
78877;SDS011;68257;43.514;1.498;2023-06-24T14:45:01;6.88;;;6.28;;
78877;SDS011;68257;43.514;1.498;2023-06-24T14:47:27;6.90;;;6.27;;
78877;SDS011;68257;43.514;1.498;2023-06-24T14:49:52;6.53;;;5.87;;
78877;SDS011;68257;43.514;1.498;2023-06-24T14:52:18;7.10;;;6.03;;
78877;SDS011;68257;43.514;1.498;2023-06-24T14:54:43;6.83;;;6.23;;
78877;SDS011;68257;43.514;1.498;2023-06-24T14:57:11;7.22;;;6.63;;
78877;SDS011;68257;43.514;1.498;2023-06-24T14:59:36;7.33;;;6.67;;
78877;SDS011;68257;43.514;1.498;2023-06-24T15:02:02;6.50;;;6.00;;
78877;SDS011;68257;43.514;1.498;2023-06-24T15:04:27;7.40;;;6.00;;
78877;SDS011;68257;43.514;1.498;2023-06-24T15:06:52;6.10;;;5.60;;
78877;SDS011;68257;43.514;1.498;2023-06-24T15:09:18;6.20;;;5.30;;
78877;SDS011;68257;43.514;1.498;2023-06-24T15:11:43;6.70;;;6.10;;
78877;SDS011;68257;43.514;1.498;2023-06-24T15:14:09;6.57;;;5.90;;
78877;SDS011;68257;43.514;1.498;2023-06-24T15:16:34;6.57;;;5.70;;
78877;SDS011;68257;43.514;1.498;2023-06-24T15:18:59;6.40;;;5.80;;
78877;SDS011;68257;43.514;1.498;2023-06-24T15:21:25;5.60;;;5.10;;
78877;SDS011;68257;43.514;1.498;2023-06-24T15:23:50;5.43;;;4.93;;
78877;SDS011;68257;43.514;1.498;2023-06-24T15:26:15;33.90;;;8.93;;
78877;SDS011;68257;43.514;1.498;2023-06-24T15:28:41;5.83;;;5.30;;
78877;SDS011;68257;43.514;1.498;2023-06-24T15:31:06;5.20;;;4.70;;
78877;SDS011;68257;43.514;1.498;2023-06-24T15:33:32;5.70;;;5.20;;